Time;durP1;ratioP1;P1;durP2;ratioP2;P2;SDS_P1;SDS_P2;PMS_P1;PMS_P2;Temp;Humidity;BMP_temperature;BMP_pressure;BME280_temperature;BME280_humidity;BME280_pressure;Samples;Min_cycle;Max_cycle;Signal;HPM_P1;HPM_P2
2022/06/28 00:01:18;;;;;;;8.60;7.73;;;;;;;14.82;82.63;101884.19;5010939;28;20827;-44
2022/06/28 00:03:46;;;;;;;9.00;8.30;;;;;;;14.84;82.09;101884.78;5012167;28;20826;-46
2022/06/28 00:06:14;;;;;;;8.77;8.17;;;;;;;14.87;81.86;101880.91;5011924;28;20802;-47
2022/06/28 00:08:41;;;;;;;9.10;8.33;;;;;;;14.89;82.21;101885.06;5011715;28;20429;-44
2022/06/28 00:11:09;;;;;;;8.77;8.07;;;;;;;14.93;81.46;101882.81;5011062;28;20469;-44
2022/06/28 00:13:37;;;;;;;8.53;7.93;;;;;;;14.96;81.62;101880.53;5011523;28;20476;-44
2022/06/28 00:16:05;;;;;;;8.53;7.93;;;;;;;14.96;82.74;101879.72;5011850;28;20448;-44
2022/06/28 00:18:34;;;;;;;8.50;7.90;;;;;;;14.98;83.18;101882.19;5011699;28;20930;-44
2022/06/28 00:21:02;;;;;;;8.30;7.80;;;;;;;14.98;83.64;101883.03;5011060;28;20467;-44
2022/06/28 00:23:30;;;;;;;11.53;8.30;;;;;;;14.99;83.14;101889.25;5015179;28;20459;-44
2022/06/28 00:25:58;;;;;;;8.80;8.10;;;;;;;15.02;82.60;101872.72;5015401;28;20436;-44
2022/06/28 00:28:28;;;;;;;9.20;8.60;;;;;;;15.04;82.64;101873.34;5015486;28;20444;-44
2022/06/28 00:30:55;;;;;;;9.23;8.30;;;;;;;15.05;83.31;101880.41;5015153;28;20453;-45
2022/06/28 00:33:24;;;;;;;7.93;7.43;;;;;;;15.04;84.20;101895.69;5008286;28;20477;-46
2022/06/28 00:35:52;;;;;;;9.60;8.90;;;;;;;15.03;84.52;101895.88;5015147;28;20444;-45
2022/06/28 00:38:20;;;;;;;8.20;7.67;;;;;;;15.02;84.79;101897.75;5015252;28;20436;-44
2022/06/28 00:40:49;;;;;;;9.83;9.03;;;;;;;15.03;84.41;101899.38;5014383;28;20997;-46
2022/06/28 00:43:18;;;;;;;8.93;8.33;;;;;;;15.03;84.95;101901.25;5015293;28;20425;-44
2022/06/28 00:45:47;;;;;;;9.83;8.90;;;;;;;15.02;85.44;101896.91;5015277;28;20652;-45
2022/06/28 00:48:17;;;;;;;9.40;8.60;;;;;;;15.02;85.48;101891.53;5015170;28;20429;-44
2022/06/28 00:50:46;;;;;;;9.23;8.53;;;;;;;15.02;85.32;101897.75;5014319;28;20471;-44
2022/06/28 00:53:16;;;;;;;9.23;8.33;;;;;;;15.03;85.36;101896.69;5014724;28;20483;-44
2022/06/28 00:55:45;;;;;;;9.37;8.67;;;;;;;15.05;85.33;101904.56;5014859;28;20969;-44
2022/06/28 00:58:13;;;;;;;10.00;9.20;;;;;;;15.06;85.18;101899.00;5014862;28;20433;-45
2022/06/28 01:00:43;;;;;;;10.53;9.83;;;;;;;15.06;85.97;101898.16;5014114;28;20460;-45
2022/06/28 01:03:13;;;;;;;9.90;9.00;;;;;;;15.07;85.75;101907.88;5014576;28;20449;-46
2022/06/28 01:05:43;;;;;;;10.90;9.80;;;;;;;15.09;85.86;101905.81;5014662;28;20939;-46
2022/06/28 01:08:12;;;;;;;9.07;8.33;;;;;;;15.09;85.54;101906.66;5014907;28;20432;-47
2022/06/28 01:10:41;;;;;;;8.97;8.17;;;;;;;15.11;85.69;101914.53;5014024;28;20469;-46
2022/06/28 01:13:09;;;;;;;7.80;7.20;;;;;;;15.12;85.70;101916.16;5014509;28;20830;-45
2022/06/28 01:15:38;;;;;;;8.57;7.83;;;;;;;15.16;85.29;101906.69;5014572;28;20437;-45
2022/06/28 01:18:06;;;;;;;7.70;7.20;;;;;;;15.16;86.00;101901.31;5014503;28;20523;-44
2022/06/28 01:20:35;;;;;;;7.57;7.07;;;;;;;15.14;86.96;101903.38;5013735;28;20461;-46
2022/06/28 01:23:04;;;;;;;8.80;8.20;;;;;;;15.16;86.66;101906.69;5014455;28;20823;-47
2022/06/28 01:25:32;;;;;;;8.10;7.50;;;;;;;15.15;87.18;101905.03;5014284;28;20448;-46
2022/06/28 01:28:00;;;;;;;8.47;7.80;;;;;;;15.17;86.40;101911.84;5014085;28;20503;-44
2022/06/28 01:30:28;;;;;;;9.90;9.00;;;;;;;15.18;86.71;101900.09;5013573;28;20464;-45
2022/06/28 01:32:56;;;;;;;8.10;7.60;;;;;;;15.17;87.09;101906.47;5013340;28;20464;-49
2022/06/28 01:35:24;;;;;;;7.63;7.13;;;;;;;15.19;86.55;101904.44;5013655;28;20476;-44
2022/06/28 01:37:51;;;;;;;9.23;8.20;;;;;;;15.19;87.13;101896.38;5014320;28;20437;-44
2022/06/28 01:40:21;;;;;;;7.87;6.83;;;;;;;15.19;87.65;101898.25;5013509;28;20854;-49
2022/06/28 01:42:48;;;;;;;10.07;9.27;;;;;;;15.16;88.12;101898.63;5013870;28;20460;-46
2022/06/28 01:45:17;;;;;;;6.80;6.40;;;;;;;15.12;89.34;101894.69;5013807;28;20437;-46
2022/06/28 01:47:45;;;;;;;7.27;6.77;;;;;;;15.07;89.92;101887.22;5014120;28;20422;-48
2022/06/28 01:50:13;;;;;;;8.10;7.50;;;;;;;15.02;90.08;101892.38;5013373;28;20468;-50
2022/06/28 01:52:42;;;;;;;8.53;7.93;;;;;;;14.96;91.15;101898.53;5013924;28;20449;-49
2022/06/28 01:55:10;;;;;;;10.43;9.63;;;;;;;14.90;91.09;101905.50;5013756;28;20473;-46
2022/06/28 01:57:40;;;;;;;9.87;9.00;;;;;;;14.85;90.74;101893.69;5013717;28;20445;-44
2022/06/28 02:00:09;;;;;;;9.57;8.90;;;;;;;14.84;90.15;101905.47;5013089;28;20474;-47
2022/06/28 02:02:37;;;;;;;10.30;9.50;;;;;;;14.82;89.83;101900.28;5013495;28;20851;-44
2022/06/28 02:05:06;;;;;;;8.70;8.10;;;;;;;14.80;90.00;101907.72;5013718;28;20433;-45
2022/06/28 02:07:33;;;;;;;10.90;10.10;;;;;;;14.78;89.90;101909.75;5013658;28;20444;-44
2022/06/28 02:10:02;;;;;;;10.80;9.97;;;;;;;14.77;89.69;101905.44;5013044;28;20792;-45
2022/06/28 02:12:29;;;;;;;11.43;10.20;;;;;;;14.76;89.56;101902.91;5013060;28;20455;-46
2022/06/28 02:14:58;;;;;;;10.60;9.70;;;;;;;14.73;89.92;101911.38;5013609;28;20477;-49
2022/06/28 02:17:26;;;;;;;11.83;10.03;;;;;;;14.69;90.41;101923.53;5013470;28;20440;-52
2022/06/28 02:19:54;;;;;;;11.60;10.23;;;;;;;14.66;90.11;101916.72;5012809;28;20471;-52
2022/06/28 02:22:22;;;;;;;10.33;9.63;;;;;;;14.64;90.09;101931.31;5013029;28;20457;-45
2022/06/28 02:24:51;;;;;;;12.90;11.67;;;;;;;14.60;90.33;101932.75;5013136;28;20433;-49
2022/06/28 02:27:19;;;;;;;11.67;10.63;;;;;;;14.59;89.72;101934.59;5013364;28;20440;-47
2022/06/28 02:29:47;;;;;;;10.60;9.70;;;;;;;14.60;89.01;101930.91;5012989;28;20456;-44
2022/06/28 02:32:16;;;;;;;12.73;9.50;;;;;;;14.61;88.63;101935.22;5005721;28;20454;-47
2022/06/28 02:40:24;;;;;;;13.73;9.90;;;;;;;14.66;87.86;101934.66;5012461;28;20560;-50
2022/06/28 02:42:53;;;;;;;10.17;9.23;;;;;;;14.66;88.29;101929.31;5013086;28;20449;-46
2022/06/28 02:45:22;;;;;;;12.10;11.00;;;;;;;14.65;88.18;101923.09;5012602;28;20771;-44
2022/06/28 02:47:51;;;;;;;13.70;11.60;;;;;;;14.63;88.54;101933.22;5012796;28;20436;-45
2022/06/28 02:50:19;;;;;;;12.37;10.77;;;;;;;14.62;89.04;101928.00;5012270;28;20465;-47
2022/06/28 02:52:46;;;;;;;12.80;11.60;;;;;;;14.58;89.61;101924.88;5012887;28;20472;-49
2022/06/28 02:55:14;;;;;;;13.20;11.60;;;;;;;14.57;89.56;101928.63;5012639;28;20477;-44
2022/06/28 02:57:44;;;;;;;12.77;11.57;;;;;;;14.54;89.80;101929.00;5012809;28;20440;-44
2022/06/28 03:00:14;;;;;;;12.90;9.80;;;;;;;14.55;89.27;101944.06;5012059;28;20843;-45
2022/06/28 03:02:44;;;;;;;13.10;11.77;;;;;;;14.54;89.75;101941.59;5012475;28;20461;-46
2022/06/28 03:05:15;;;;;;;11.43;10.13;;;;;;;14.51;90.09;101934.75;5012818;28;20429;-47
2022/06/28 03:07:44;;;;;;;12.13;9.07;;;;;;;14.52;90.06;101939.09;5012595;28;20441;-46
2022/06/28 03:10:12;;;;;;;11.50;8.83;;;;;;;14.54;89.01;101937.06;5009937;28;20548;-46
2022/06/28 03:12:40;;;;;;;12.83;11.70;;;;;;;14.54;89.26;101936.22;5012197;28;20457;-46
2022/06/28 03:15:09;;;;;;;13.40;10.03;;;;;;;14.54;89.78;101934.38;5012146;28;20560;-45
2022/06/28 03:17:37;;;;;;;13.63;12.23;;;;;;;14.53;90.44;101934.53;5012595;28;20433;-44
2022/06/28 03:20:06;;;;;;;13.60;12.50;;;;;;;14.51;90.56;101940.13;5012110;28;20491;-46
2022/06/28 03:22:35;;;;;;;12.07;11.17;;;;;;;14.50;90.75;101935.75;5012045;28;20854;-46
2022/06/28 03:25:03;;;;;;;11.27;10.37;;;;;;;14.49;90.97;101942.16;5012319;28;20528;-45
2022/06/28 03:27:31;;;;;;;15.80;11.57;;;;;;;14.46;91.48;101949.75;5012092;28;20436;-46
2022/06/28 03:29:59;;;;;;;11.20;10.20;;;;;;;14.45;91.46;101943.59;5011861;28;20471;-48
2022/06/28 03:32:27;;;;;;;11.20;10.20;;;;;;;14.43;91.51;101948.28;5004838;28;20452;-46
2022/06/28 03:34:54;;;;;;;12.60;10.00;;;;;;;14.44;91.12;101949.97;5012025;28;20473;-45
2022/06/28 03:37:22;;;;;;;13.87;11.03;;;;;;;14.44;91.27;101959.84;5012210;28;20440;-46
2022/06/28 03:39:51;;;;;;;10.13;9.33;;;;;;;14.42;92.23;101956.53;5011424;28;20477;-47
2022/06/28 03:42:19;;;;;;;11.40;9.90;;;;;;;14.45;91.74;101959.69;5011940;28;20453;-45
2022/06/28 03:44:46;;;;;;;12.03;11.03;;;;;;;14.48;90.83;101963.84;5012187;28;20445;-47
2022/06/28 03:47:14;;;;;;;8.57;7.87;;;;;;;14.53;90.76;101964.91;5011957;28;20953;-45
2022/06/28 03:49:42;;;;;;;13.13;11.73;;;;;;;14.57;91.36;101966.19;5010519;28;20434;-44
2022/06/28 03:52:09;;;;;;;10.07;8.70;;;;;;;14.70;89.94;101965.44;5011559;28;20449;-48
2022/06/28 03:54:37;;;;;;;9.83;9.13;;;;;;;14.93;86.65;101969.56;5011613;28;20437;-49
2022/06/28 03:57:07;;;;;;;9.87;9.00;;;;;;;15.12;86.84;101968.06;5013373;28;20799;-44
2022/06/28 03:59:36;;;;;;;10.33;9.37;;;;;;;15.29;88.15;101971.28;5015442;28;20950;-46
2022/06/28 04:02:04;;;;;;;9.37;8.67;;;;;;;15.37;90.47;101977.31;5015342;28;20460;-47
2022/06/28 04:04:32;;;;;;;10.63;9.50;;;;;;;15.35;94.54;101975.88;5015772;28;20435;-47
2022/06/28 04:07:00;;;;;;;9.47;8.67;;;;;;;15.32;95.73;101977.06;5015631;28;21030;-45
2022/06/28 04:09:28;;;;;;;8.00;7.40;;;;;;;15.35;94.73;101989.31;5015376;28;20439;-44
2022/06/28 04:11:55;;;;;;;10.50;8.03;;;;;;;15.42;94.20;101990.16;5015505;28;20459;-47
2022/06/28 04:14:24;;;;;;;8.57;8.00;;;;;;;15.51;93.43;101997.06;5015629;28;20440;-44
2022/06/28 04:16:52;;;;;;;8.57;7.83;;;;;;;15.62;93.59;102001.06;5015401;28;20476;-46
2022/06/28 04:19:22;;;;;;;8.87;8.17;;;;;;;15.69;94.62;101997.38;5015466;28;20516;-46
2022/06/28 04:21:50;;;;;;;8.20;7.60;;;;;;;15.85;93.47;102001.59;5014878;28;20456;-45
2022/06/28 04:24:18;;;;;;;8.43;7.73;;;;;;;16.02;92.86;102002.88;5015414;28;20432;-47
2022/06/28 04:26:45;;;;;;;9.83;8.97;;;;;;;16.10;95.45;102008.06;5015537;28;20428;-47
2022/06/28 04:29:13;;;;;;;10.03;8.67;;;;;;;16.21;96.23;102018.28;5015426;28;20448;-45
2022/06/28 04:31:42;;;;;;;8.13;7.63;;;;;;;16.22;99.00;102021.81;5014521;28;20838;-45
2022/06/28 04:34:09;;;;;;;8.93;8.30;;;;;;;16.20;100.00;102027.38;5015029;28;20440;-48
2022/06/28 04:36:37;;;;;;;8.50;7.90;;;;;;;16.18;100.00;102034.84;5015393;28;20473;-44
2022/06/28 04:39:05;;;;;;;8.93;7.20;;;;;;;16.18;100.00;102037.53;5015078;28;20436;-48
2022/06/28 04:41:33;;;;;;;7.83;7.20;;;;;;;16.25;100.00;102046.44;5014152;28;20481;-44
2022/06/28 04:44:01;;;;;;;8.70;8.10;;;;;;;16.44;99.81;102045.66;5015225;28;20830;-43
2022/06/28 04:46:29;;;;;;;7.80;7.30;;;;;;;17.23;89.84;102040.38;5015051;28;20435;-44
2022/06/28 04:48:58;;;;;;;7.80;6.53;;;;;;;18.66;76.09;102043.63;5015292;28;20447;-43
2022/06/28 04:51:26;;;;;;;5.63;5.23;;;;;;;19.30;100.00;102035.19;5014176;28;21009;-44
2022/06/28 04:53:53;;;;;;;5.70;5.20;;;;;;;20.64;100.00;102037.72;5015027;28;20798;-45
2022/06/28 04:56:23;;;;;;;5.90;5.47;;;;;;;21.06;99.71;102045.81;5014945;28;20476;-46
2022/06/28 04:58:51;;;;;;;6.47;5.87;;;;;;;20.77;93.82;102044.84;5014937;28;20424;-45
2022/06/28 05:01:19;;;;;;;5.67;5.27;;;;;;;20.49;93.27;102034.63;5013842;28;20468;-45
2022/06/28 05:03:46;;;;;;;4.80;4.60;;;;;;;20.91;94.89;102049.00;5015065;28;20432;-47
2022/06/28 05:06:15;;;;;;;5.33;4.93;;;;;;;21.12;87.45;102053.88;5014856;28;20433;-49
2022/06/28 05:08:43;;;;;;;4.90;4.37;;;;;;;22.06;93.32;102055.50;5014609;28;20432;-48
2022/06/28 05:11:10;;;;;;;4.07;3.87;;;;;;;22.61;85.08;102048.38;5013857;28;20472;-47
2022/06/28 05:13:38;;;;;;;4.07;3.90;;;;;;;23.14;86.10;102044.44;5014475;28;20942;-44
2022/06/28 05:16:06;;;;;;;3.70;3.40;;;;;;;24.62;81.53;102038.72;5014676;28;20476;-49
2022/06/28 05:18:33;;;;;;;6.03;4.40;;;;;;;24.84;77.05;102038.69;5014570;28;20433;-46
2022/06/28 05:21:01;;;;;;;3.77;3.57;;;;;;;25.46;78.53;102036.09;5013751;28;20469;-48
2022/06/28 05:23:30;;;;;;;4.60;4.40;;;;;;;25.15;70.90;102046.00;5014359;28;20436;-44
2022/06/28 05:25:58;;;;;;;4.03;3.87;;;;;;;25.33;70.80;102047.50;5014409;28;20440;-45
2022/06/28 05:28:25;;;;;;;4.90;4.47;;;;;;;25.75;71.48;102039.28;5014126;28;20926;-44
2022/06/28 05:30:53;;;;;;;7.40;4.30;;;;;;;25.99;66.33;102039.66;5013625;28;20595;-44
2022/06/28 05:33:22;;;;;;;3.47;3.27;;;;;;;26.06;69.36;102034.78;5007201;28;21094;-45
2022/06/28 05:35:50;;;;;;;4.00;3.87;;;;;;;27.13;68.39;102033.84;5014179;28;20830;-45
2022/06/28 05:38:18;;;;;;;5.80;4.60;;;;;;;27.94;64.80;102028.97;5014198;28;20434;-46
2022/06/28 05:40:47;;;;;;;5.00;4.70;;;;;;;28.76;64.98;102022.75;5013311;28;20471;-47
2022/06/28 05:43:14;;;;;;;5.03;4.73;;;;;;;29.47;62.09;102020.16;5014258;28;20452;-47
2022/06/28 05:45:42;;;;;;;5.47;4.97;;;;;;;29.94;57.48;102032.25;5014134;28;20447;-49
2022/06/28 05:48:10;;;;;;;5.20;4.80;;;;;;;30.39;57.17;102026.13;5013959;28;20540;-46
2022/06/28 05:50:37;;;;;;;5.13;4.73;;;;;;;30.84;55.28;102032.84;5013122;28;20229;-49
2022/06/28 05:53:05;;;;;;;4.83;4.43;;;;;;;31.13;54.09;102025.19;5013762;28;20245;-48
2022/06/28 05:55:33;;;;;;;4.85;4.15;;;;;;;31.51;52.73;102033.31;5013890;28;20327;-46
2022/06/28 05:58:02;;;;;;;4.17;3.57;;;;;;;31.97;51.89;102030.41;5013982;28;20201;-48
2022/06/28 06:00:29;;;;;;;5.87;3.60;;;;;;;32.43;49.34;102042.09;5013145;28;20222;-50
2022/06/28 06:02:57;;;;;;;3.70;3.50;;;;;;;32.62;46.78;102031.69;5013521;28;20235;-50
2022/06/28 06:05:25;;;;;;;3.95;3.50;;;;;;;32.74;46.08;102034.72;5013673;28;20255;-47
2022/06/28 06:07:52;;;;;;;3.60;3.40;;;;;;;32.76;45.60;102039.94;5013506;28;20552;-46
2022/06/28 06:10:20;;;;;;;4.90;3.40;;;;;;;32.93;43.16;102026.22;5013022;28;20308;-50
2022/06/28 06:12:48;;;;;;;3.20;2.90;;;;;;;33.02;42.29;102024.31;5013609;28;20225;-46
2022/06/28 06:15:17;;;;;;;2.78;2.58;;;;;;;33.02;42.49;102021.56;5013431;28;20821;-51
2022/06/28 06:17:44;;;;;;;4.25;3.00;;;;;;;33.37;42.49;102030.88;5013334;28;20232;-47
2022/06/28 06:20:12;;;;;;;4.22;3.83;;;;;;;33.43;41.73;102037.88;5012076;28;20233;-51
2022/06/28 06:22:40;;;;;;;4.03;3.72;;;;;;;33.19;36.99;102034.69;5013463;28;20228;-45
2022/06/28 06:25:09;;;;;;;4.05;3.70;;;;;;;32.19;39.69;102034.09;5013425;28;20217;-46
2022/06/28 06:27:37;;;;;;;5.65;5.25;;;;;;;29.93;41.98;102038.84;5013354;28;20190;-49
2022/06/28 06:30:06;;;;;;;5.25;4.78;;;;;;;29.81;40.42;102038.44;5012686;28;20224;-49
2022/06/28 06:32:35;;;;;;;5.25;4.93;;;;;;;29.52;43.91;102033.81;5013644;28;20267;-46
2022/06/28 06:35:04;;;;;;;4.80;4.50;;;;;;;29.29;46.78;102036.56;5012871;28;20216;-47
2022/06/28 06:37:32;;;;;;;4.67;4.40;;;;;;;30.08;45.18;102041.41;5013175;28;20225;-46
2022/06/28 06:39:59;;;;;;;4.73;4.43;;;;;;;29.37;46.62;102042.25;5012531;28;20698;-47
2022/06/28 06:42:27;;;;;;;6.90;4.10;;;;;;;30.47;46.12;102041.13;5012830;28;20591;-46
2022/06/28 06:44:55;;;;;;;4.80;4.40;;;;;;;31.06;45.56;102041.28;5012913;28;20194;-48
2022/06/28 06:47:23;;;;;;;6.73;4.20;;;;;;;30.67;43.08;102047.13;5012742;28;20564;-46
2022/06/28 06:49:52;;;;;;;5.13;4.78;;;;;;;29.35;46.66;102052.72;5012366;28;20702;-48
2022/06/28 06:52:20;;;;;;;5.50;5.10;;;;;;;28.67;47.24;102054.66;5012740;28;20591;-46
2022/06/28 06:54:47;;;;;;;5.50;5.20;;;;;;;28.03;47.84;102054.72;5012806;28;20193;-47
2022/06/28 06:57:20;;;;;;;5.70;5.30;;;;;;;27.09;49.48;102066.44;5012730;28;20221;-49
2022/06/28 06:59:47;;;;;;;5.53;5.23;;;;;;;26.35;50.72;102063.31;5012129;28;20226;-46
2022/06/28 07:02:15;;;;;;;7.03;6.53;;;;;;;25.55;52.73;102071.97;5012175;28;20229;-48
2022/06/28 07:04:42;;;;;;;5.93;5.50;;;;;;;25.04;54.46;102066.13;5012695;28;20442;-48
2022/06/28 07:07:11;;;;;;;5.77;5.37;;;;;;;24.59;56.18;102061.06;5012691;28;20431;-53
2022/06/28 07:09:39;;;;;;;6.93;6.43;;;;;;;24.54;57.46;102063.75;5012217;28;20435;-48
2022/06/28 07:12:08;;;;;;;6.77;6.50;;;;;;;25.51;56.91;102059.91;5012246;28;20699;-53
2022/06/28 07:14:36;;;;;;;6.63;6.10;;;;;;;26.38;56.03;102060.03;5012127;28;20433;-47
2022/06/28 07:17:04;;;;;;;5.80;5.40;;;;;;;27.72;53.85;102069.63;5012370;28;20476;-52
2022/06/28 07:19:31;;;;;;;5.97;5.47;;;;;;;27.65;50.33;102066.38;5011793;28;20437;-47
2022/06/28 07:21:59;;;;;;;5.77;5.50;;;;;;;27.03;51.11;102067.53;5011742;28;20460;-49
2022/06/28 07:24:28;;;;;;;4.73;4.53;;;;;;;26.66;50.77;102072.41;4992594;28;20516;-45
2022/06/28 07:26:55;;;;;;;5.70;5.40;;;;;;;26.19;52.10;102072.59;4992539;28;20851;-50
2022/06/28 07:29:23;;;;;;;6.20;5.70;;;;;;;25.94;53.52;102077.91;4992342;28;20811;-47
2022/06/28 07:31:50;;;;;;;5.70;5.50;;;;;;;25.65;53.51;102069.31;4996944;28;20459;-52
2022/06/28 07:34:18;;;;;;;6.03;5.63;;;;;;;25.70;53.63;102064.69;5012039;28;20435;-45
2022/06/28 07:36:46;;;;;;;6.70;6.30;;;;;;;27.38;51.71;102064.78;5012104;28;20483;-45
2022/06/28 07:39:13;;;;;;;4.80;4.60;;;;;;;27.38;49.91;102063.94;5012033;28;20437;-47
2022/06/28 07:41:43;;;;;;;4.63;4.33;;;;;;;27.95;50.83;102067.09;5011186;28;20996;-46
2022/06/28 07:44:11;;;;;;;5.20;4.00;;;;;;;28.86;50.89;102076.75;5012153;28;20440;-46
2022/06/28 07:46:39;;;;;;;5.67;4.30;;;;;;;29.20;46.15;102076.72;5012027;28;20568;-48
2022/06/28 07:49:07;;;;;;;5.13;4.80;;;;;;;29.55;46.39;102081.91;5012005;28;20439;-52
2022/06/28 07:54:20;;;;;;;5.53;5.13;;;;;;;29.35;44.47;102076.63;5011848;28;20608;-46
2022/06/28 07:56:49;;;;;;;6.00;5.60;;;;;;;29.51;42.47;102075.38;5012063;28;20220;-47
2022/06/28 07:59:17;;;;;;;7.50;6.80;;;;;;;29.66;43.53;102082.63;5011996;28;20199;-48
2022/06/28 08:01:44;;;;;;;5.13;4.73;;;;;;;29.77;45.82;102089.63;5010145;28;20600;-48
2022/06/28 08:04:14;;;;;;;5.97;5.53;;;;;;;30.14;44.32;102074.06;5011746;28;20201;-48
2022/06/28 08:06:43;;;;;;;5.87;5.47;;;;;;;30.53;42.26;102079.31;5011688;28;20202;-46
2022/06/28 08:09:10;;;;;;;5.07;4.77;;;;;;;30.40;43.32;102071.81;5011951;28;20193;-46
2022/06/28 08:11:39;;;;;;;4.83;4.60;;;;;;;30.10;42.74;102064.78;5010494;28;20236;-48
2022/06/28 08:14:11;;;;;;;4.33;4.13;;;;;;;30.35;42.15;102069.09;5011839;28;20441;-45
2022/06/28 08:16:39;;;;;;;4.63;4.43;;;;;;;30.33;41.89;102073.25;5011736;28;20215;-52
2022/06/28 08:19:07;;;;;;;4.60;4.30;;;;;;;30.22;42.25;102078.09;5011464;28;20583;-47
2022/06/28 08:21:34;;;;;;;4.20;3.90;;;;;;;29.36;40.31;102075.53;5010186;28;20225;-45
2022/06/28 08:24:02;;;;;;;3.70;3.50;;;;;;;28.59;43.41;102077.19;5011793;28;20277;-46
2022/06/28 08:26:29;;;;;;;3.47;3.37;;;;;;;27.94;42.98;102078.34;5011725;28;20194;-48
2022/06/28 08:28:57;;;;;;;3.60;3.40;;;;;;;27.73;44.15;102074.84;5011528;28;20471;-49
2022/06/28 08:31:26;;;;;;;5.47;4.97;;;;;;;27.31;44.74;102077.91;5007709;28;20473;-48
2022/06/28 08:33:54;;;;;;;4.97;4.67;;;;;;;26.75;45.67;102079.81;5006886;28;20439;-45
2022/06/28 08:36:21;;;;;;;4.30;4.10;;;;;;;26.84;46.32;102080.97;5011553;28;20443;-46
2022/06/28 08:38:49;;;;;;;3.67;3.47;;;;;;;26.57;44.96;102080.34;5011363;28;21012;-49
2022/06/28 08:41:17;;;;;;;4.23;4.03;;;;;;;26.22;47.09;102086.53;5010068;28;20479;-50
2022/06/28 08:43:45;;;;;;;4.23;4.03;;;;;;;25.97;46.85;102085.59;5013645;28;20438;-48
2022/06/28 08:46:15;;;;;;;4.20;3.83;;;;;;;26.66;47.55;102089.66;5014976;28;20456;-45
2022/06/28 08:48:50;;;;;;;3.83;3.63;;;;;;;26.86;46.79;102088.88;5015260;28;20486;-45
2022/06/28 08:51:18;;;;;;;4.30;4.10;;;;;;;27.38;45.10;102088.59;5013385;28;20459;-49
2022/06/28 08:53:48;;;;;;;3.40;3.20;;;;;;;27.62;45.40;102084.22;5015073;28;20436;-47
2022/06/28 08:56:16;;;;;;;4.87;4.50;;;;;;;27.10;45.29;102087.25;5015045;28;20440;-46
2022/06/28 08:58:45;;;;;;;4.53;4.33;;;;;;;26.99;46.27;102087.53;5014748;28;21092;-45
2022/06/28 09:01:14;;;;;;;4.43;4.23;;;;;;;26.27;47.89;102097.50;5013172;28;20464;-52
2022/06/28 09:03:44;;;;;;;4.80;4.37;;;;;;;25.41;49.23;102095.34;5014830;28;20424;-46
2022/06/28 09:06:12;;;;;;;5.73;4.60;;;;;;;25.52;50.28;102094.34;5014926;28;20447;-48
2022/06/28 09:08:40;;;;;;;5.90;5.50;;;;;;;25.33;51.98;102092.00;5014691;28;20437;-46
2022/06/28 09:11:08;;;;;;;4.57;4.30;;;;;;;25.43;50.87;102091.25;5013585;28;20464;-47
2022/06/28 09:13:36;;;;;;;7.40;4.47;;;;;;;25.56;51.48;102096.31;5014815;28;20432;-48
2022/06/28 09:16:05;;;;;;;5.80;4.63;;;;;;;25.50;49.85;102091.91;5014656;28;20532;-47
2022/06/28 09:18:46;;;;;;;4.73;4.30;;;;;;;25.54;46.24;102095.72;5014536;28;20483;-48
2022/06/28 09:21:16;;;;;;;4.10;3.90;;;;;;;25.74;47.20;102097.78;5013861;28;20468;-48
2022/06/28 09:23:46;;;;;;;4.70;4.40;;;;;;;25.38;44.90;102093.97;5014314;28;20436;-46
2022/06/28 09:26:16;;;;;;;4.10;3.67;;;;;;;25.57;46.17;102095.19;5014637;28;20788;-49
2022/06/28 09:28:47;;;;;;;4.40;4.20;;;;;;;25.67;45.50;102094.44;5014545;28;20424;-45
2022/06/28 09:31:20;;;;;;;3.17;3.00;;;;;;;25.74;45.56;102095.03;5013534;28;20476;-49
2022/06/28 09:34:03;;;;;;;3.90;3.63;;;;;;;25.79;43.56;102090.41;5014230;28;20424;-46
2022/06/28 09:36:33;;;;;;;4.40;4.00;;;;;;;25.68;43.77;102086.00;4994835;28;20521;-47
2022/06/28 09:39:11;;;;;;;4.17;3.77;;;;;;;25.99;45.01;102084.22;4994415;28;20571;-45
2022/06/28 09:41:39;;;;;;;3.47;3.27;;;;;;;26.42;45.43;102080.31;4993890;28;20466;-46
2022/06/28 09:44:28;;;;;;;4.17;3.87;;;;;;;26.19;45.26;102080.78;4994576;28;20430;-48
2022/06/28 09:46:57;;;;;;;4.60;3.50;;;;;;;26.80;43.74;102079.03;4994523;28;20799;-47
2022/06/28 09:49:29;;;;;;;3.40;3.13;;;;;;;26.35;45.62;102090.66;4993946;28;20430;-49
2022/06/28 09:51:59;;;;;;;3.70;3.50;;;;;;;25.84;45.47;102093.16;4993996;28;20449;-45
2022/06/28 09:54:28;;;;;;;3.70;3.50;;;;;;;25.50;47.54;102102.00;4993359;28;20434;-49
2022/06/28 09:56:58;;;;;;;4.33;3.83;;;;;;;25.10;49.49;102106.03;4994074;28;20429;-43
2022/06/28 09:59:27;;;;;;;4.00;3.67;;;;;;;25.13;49.73;102102.78;4993790;28;20477;-46
2022/06/28 10:01:56;;;;;;;3.83;3.63;;;;;;;25.57;49.67;102100.66;4993664;28;20461;-49
2022/06/28 10:04:26;;;;;;;3.93;3.50;;;;;;;25.91;48.83;102098.41;4994182;28;20488;-46
2022/06/28 10:06:55;;;;;;;4.23;3.83;;;;;;;26.47;48.27;102091.25;4994026;28;20441;-45
2022/06/28 10:09:23;;;;;;;3.40;3.20;;;;;;;26.76;46.06;102094.34;4994053;28;20460;-49
2022/06/28 10:17:39;;;;;;;3.00;2.80;;;;;;;26.28;45.75;102101.84;4994032;28;20805;-50
2022/06/28 10:20:10;;;;;;;4.57;4.03;;;;;;;25.59;47.39;102103.16;4993643;28;20470;-46
2022/06/28 10:22:39;;;;;;;3.90;3.53;;;;;;;25.30;48.60;102102.63;4993913;28;20468;-48
2022/06/28 10:25:15;;;;;;;4.77;4.33;;;;;;;24.94;49.10;102100.72;4993831;28;20521;-47
2022/06/28 10:27:48;;;;;;;3.00;2.90;;;;;;;25.31;50.26;102096.09;4993809;28;20433;-44
2022/06/28 10:30:27;;;;;;;3.27;2.93;;;;;;;25.05;46.18;102094.25;4992816;28;20472;-46
2022/06/28 10:32:56;;;;;;;5.50;3.43;;;;;;;24.84;48.87;102092.41;5007664;28;20456;-45
2022/06/28 10:36:02;;;;;;;3.43;3.13;;;;;;;24.74;49.65;102093.94;5013172;28;20620;-48
2022/06/28 10:38:32;;;;;;;4.27;3.03;;;;;;;24.68;49.92;102089.50;5012936;28;20997;-50
2022/06/28 10:41:14;;;;;;;3.70;3.47;;;;;;;24.43;48.20;102091.97;5012153;28;20491;-50
2022/06/28 10:43:48;;;;;;;3.57;3.33;;;;;;;24.72;48.27;102090.66;5013085;28;20433;-48
2022/06/28 10:46:15;;;;;;;3.63;3.33;;;;;;;25.23;48.73;102086.50;5012988;28;20454;-49
2022/06/28 10:49:09;;;;;;;3.37;3.17;;;;;;;25.78;47.01;102082.47;5012936;28;20870;-47
2022/06/28 10:51:42;;;;;;;3.90;3.07;;;;;;;26.12;45.90;102083.75;5012167;28;20469;-44
2022/06/28 10:54:17;;;;;;;3.33;3.13;;;;;;;26.24;42.41;102080.81;5012816;28;20436;-45
2022/06/28 10:56:46;;;;;;;3.20;3.00;;;;;;;26.37;44.68;102080.31;5012898;28;20440;-48
2022/06/28 10:59:16;;;;;;;3.80;3.50;;;;;;;26.59;44.78;102088.25;5012607;28;20472;-47
2022/06/28 11:01:59;;;;;;;4.50;3.10;;;;;;;26.81;43.72;102080.69;5011776;28;21004;-45
2022/06/28 11:04:29;;;;;;;2.90;2.70;;;;;;;26.34;42.22;102086.31;5012559;28;20436;-46
2022/06/28 11:07:00;;;;;;;3.97;2.70;;;;;;;26.41;41.56;102075.91;5012541;28;20491;-44
2022/06/28 11:09:37;;;;;;;4.00;2.90;;;;;;;26.40;40.49;102080.56;5012262;28;20428;-46
2022/06/28 11:12:10;;;;;;;3.93;2.80;;;;;;;26.44;42.99;102080.84;5012170;28;20546;-47
2022/06/28 11:14:50;;;;;;;2.90;2.70;;;;;;;26.45;41.09;102087.97;5012611;28;20432;-47
2022/06/28 11:17:20;;;;;;;3.10;2.60;;;;;;;26.61;42.30;102088.84;5012310;28;20890;-45
2022/06/28 11:19:52;;;;;;;5.53;3.10;;;;;;;26.36;41.42;102092.31;5011846;28;20464;-45
2022/06/28 11:22:21;;;;;;;3.40;2.57;;;;;;;26.39;41.45;102094.53;5011983;28;20453;-46
2022/06/28 11:24:51;;;;;;;3.00;2.57;;;;;;;26.58;41.54;102081.97;5012120;28;20443;-46
2022/06/28 11:27:21;;;;;;;3.50;3.30;;;;;;;26.55;39.81;102087.19;5012168;28;20926;-44
2022/06/28 11:29:51;;;;;;;4.93;2.70;;;;;;;26.61;40.63;102088.84;5012002;28;20456;-46
2022/06/28 11:32:21;;;;;;;3.00;2.80;;;;;;;26.58;40.71;102100.31;5004807;28;20464;-49
2022/06/28 11:34:58;;;;;;;3.10;3.00;;;;;;;26.62;40.38;102099.50;5011919;28;20443;-46
2022/06/28 11:37:26;;;;;;;2.80;2.70;;;;;;;26.79;41.51;102094.63;5012331;28;20420;-47
2022/06/28 11:39:59;;;;;;;2.87;2.60;;;;;;;27.04;41.69;102090.25;5011692;28;20465;-50
2022/06/28 11:42:28;;;;;;;3.23;2.63;;;;;;;26.79;38.68;102093.78;5011821;28;20448;-48
2022/06/28 11:44:56;;;;;;;2.97;2.77;;;;;;;26.72;38.44;102096.78;5011997;28;20457;-47